sensor_id;sensor_type;location;lat;lon;timestamp;temperature;humidity
77700;DHT22;66867;42.658;23.320;2023-04-25T00:00:00;13.7;82
77700;DHT22;66867;42.658;23.320;2023-04-25T00:01:00;13.7;82
77700;DHT22;66867;42.658;23.320;2023-04-25T00:02:00;13.6;82
77700;DHT22;66867;42.658;23.320;2023-04-25T00:03:00;13.7;82
77700;DHT22;66867;42.658;23.320;2023-04-25T00:04:00;13.6;81
77700;DHT22;66867;42.658;23.320;2023-04-25T00:05:01;13.7;81
77700;DHT22;66867;42.658;23.320;2023-04-25T00:06:00;13.7;82
77700;DHT22;66867;42.658;23.320;2023-04-25T00:07:00;13.7;82
77700;DHT22;66867;42.658;23.320;2023-04-25T00:08:00;13.7;82
77700;DHT22;66867;42.658;23.320;2023-04-25T00:09:00;13.7;80
77700;DHT22;66867;42.658;23.320;2023-04-25T00:10:00;13.7;81
77700;DHT22;66867;42.658;23.320;2023-04-25T00:11:00;13.7;81
77700;DHT22;66867;42.658;23.320;2023-04-25T00:12:00;13.7;82
77700;DHT22;66867;42.658;23.320;2023-04-25T00:13:00;13.7;81
77700;DHT22;66867;42.658;23.320;2023-04-25T00:14:00;13.7;80
77700;DHT22;66867;42.658;23.320;2023-04-25T00:15:00;13.7;81
77700;DHT22;66867;42.658;23.320;2023-04-25T00:16:00;13.7;81
77700;DHT22;66867;42.658;23.320;2023-04-25T00:17:00;13.7;81
77700;DHT22;66867;42.658;23.320;2023-04-25T00:18:00;13.6;81
77700;DHT22;66867;42.658;23.320;2023-04-25T00:19:01;13.6;80
77700;DHT22;66867;42.658;23.320;2023-04-25T00:20:00;13.6;81
77700;DHT22;66867;42.658;23.320;2023-04-25T00:21:00;13.6;81
77700;DHT22;66867;42.658;23.320;2023-04-25T00:22:00;13.6;80
77700;DHT22;66867;42.658;23.320;2023-04-25T00:23:00;13.6;80
77700;DHT22;66867;42.658;23.320;2023-04-25T00:24:00;13.5;80
77700;DHT22;66867;42.658;23.320;2023-04-25T00:25:00;13.6;80
77700;DHT22;66867;42.658;23.320;2023-04-25T00:26:00;13.6;80
77700;DHT22;66867;42.658;23.320;2023-04-25T00:27:00;13.5;80
77700;DHT22;66867;42.658;23.320;2023-04-25T00:28:00;13.6;79
77700;DHT22;66867;42.658;23.320;2023-04-25T00:29:00;13.5;79
77700;DHT22;66867;42.658;23.320;2023-04-25T00:30:00;13.5;80
77700;DHT22;66867;42.658;23.320;2023-04-25T00:31:00;13.5;80
77700;DHT22;66867;42.658;23.320;2023-04-25T00:32:00;13.5;80
77700;DHT22;66867;42.658;23.320;2023-04-25T00:33:00;13.5;81
77700;DHT22;66867;42.658;23.320;2023-04-25T00:34:00;13.4;82
77700;DHT22;66867;42.658;23.320;2023-04-25T00:35:00;13.4;82
77700;DHT22;66867;42.658;23.320;2023-04-25T00:36:00;13.4;83
77700;DHT22;66867;42.658;23.320;2023-04-25T00:37:00;13.4;83
77700;DHT22;66867;42.658;23.320;2023-04-25T00:38:00;13.3;84
77700;DHT22;66867;42.658;23.320;2023-04-25T00:39:00;13.4;84
77700;DHT22;66867;42.658;23.320;2023-04-25T00:40:00;13.4;84
77700;DHT22;66867;42.658;23.320;2023-04-25T00:41:00;13.5;84
77700;DHT22;66867;42.658;23.320;2023-04-25T00:42:00;13.5;84
77700;DHT22;66867;42.658;23.320;2023-04-25T00:43:00;13.5;84
77700;DHT22;66867;42.658;23.320;2023-04-25T00:44:00;13.4;85
77700;DHT22;66867;42.658;23.320;2023-04-25T00:45:00;13.4;85
77700;DHT22;66867;42.658;23.320;2023-04-25T00:46:00;13.5;84
77700;DHT22;66867;42.658;23.320;2023-04-25T00:47:01;13.4;85
77700;DHT22;66867;42.658;23.320;2023-04-25T00:48:00;13.3;85
77700;DHT22;66867;42.658;23.320;2023-04-25T00:49:00;13.4;85
77700;DHT22;66867;42.658;23.320;2023-04-25T00:50:00;13.4;85
77700;DHT22;66867;42.658;23.320;2023-04-25T00:51:00;13.4;85
77700;DHT22;66867;42.658;23.320;2023-04-25T00:52:00;13.3;86
77700;DHT22;66867;42.658;23.320;2023-04-25T00:53:00;13.4;85
77700;DHT22;66867;42.658;23.320;2023-04-25T00:54:00;13.4;86
77700;DHT22;66867;42.658;23.320;2023-04-25T00:55:00;13.4;86
77700;DHT22;66867;42.658;23.320;2023-04-25T00:56:00;13.3;86
77700;DHT22;66867;42.658;23.320;2023-04-25T00:57:00;13.3;86
77700;DHT22;66867;42.658;23.320;2023-04-25T00:58:00;13.4;86
77700;DHT22;66867;42.658;23.320;2023-04-25T00:59:00;13.3;86
77700;DHT22;66867;42.658;23.320;2023-04-25T01:00:00;13.4;86
77700;DHT22;66867;42.658;23.320;2023-04-25T01:01:00;13.4;86
77700;DHT22;66867;42.658;23.320;2023-04-25T01:02:00;13.4;85
77700;DHT22;66867;42.658;23.320;2023-04-25T01:03:00;13.4;85
77700;DHT22;66867;42.658;23.320;2023-04-25T01:04:00;13.4;85
77700;DHT22;66867;42.658;23.320;2023-04-25T01:05:00;13.4;85
77700;DHT22;66867;42.658;23.320;2023-04-25T01:06:01;13.4;85
77700;DHT22;66867;42.658;23.320;2023-04-25T01:07:00;13.4;85
77700;DHT22;66867;42.658;23.320;2023-04-25T01:08:00;13.4;85
77700;DHT22;66867;42.658;23.320;2023-04-25T01:09:00;13.4;86
77700;DHT22;66867;42.658;23.320;2023-04-25T01:10:00;13.4;86
77700;DHT22;66867;42.658;23.320;2023-04-25T01:11:00;13.4;86
77700;DHT22;66867;42.658;23.320;2023-04-25T01:12:00;13.4;86
77700;DHT22;66867;42.658;23.320;2023-04-25T01:13:00;13.4;85
77700;DHT22;66867;42.658;23.320;2023-04-25T01:14:00;13.3;85
77700;DHT22;66867;42.658;23.320;2023-04-25T01:15:00;13.3;85
77700;DHT22;66867;42.658;23.320;2023-04-25T01:16:00;13.4;85
77700;DHT22;66867;42.658;23.320;2023-04-25T01:17:00;13.4;85
77700;DHT22;66867;42.658;23.320;2023-04-25T01:18:00;13.4;85
77700;DHT22;66867;42.658;23.320;2023-04-25T01:19:00;13.4;85
77700;DHT22;66867;42.658;23.320;2023-04-25T01:20:02;13.3;85
77700;DHT22;66867;42.658;23.320;2023-04-25T01:21:08;13.4;85
77700;DHT22;66867;42.658;23.320;2023-04-25T01:22:00;13.4;85
77700;DHT22;66867;42.658;23.320;2023-04-25T01:23:00;13.3;85
77700;DHT22;66867;42.658;23.320;2023-04-25T01:24:00;13.4;85
77700;DHT22;66867;42.658;23.320;2023-04-25T01:25:00;13.3;85
77700;DHT22;66867;42.658;23.320;2023-04-25T01:26:00;13.4;85
77700;DHT22;66867;42.658;23.320;2023-04-25T01:27:00;13.4;85
77700;DHT22;66867;42.658;23.320;2023-04-25T01:28:00;13.3;85
77700;DHT22;66867;42.658;23.320;2023-04-25T01:29:00;13.2;85
77700;DHT22;66867;42.658;23.320;2023-04-25T01:30:00;13.1;86
77700;DHT22;66867;42.658;23.320;2023-04-25T01:31:00;13.1;86
77700;DHT22;66867;42.658;23.320;2023-04-25T01:32:00;13.1;86
77700;DHT22;66867;42.658;23.320;2023-04-25T01:33:00;13.2;86
77700;DHT22;66867;42.658;23.320;2023-04-25T01:34:00;13.2;85
77700;DHT22;66867;42.658;23.320;2023-04-25T01:35:00;13.2;85
77700;DHT22;66867;42.658;23.320;2023-04-25T01:36:00;13.3;85
77700;DHT22;66867;42.658;23.320;2023-04-25T01:37:00;13.3;85
77700;DHT22;66867;42.658;23.320;2023-04-25T01:38:00;13.3;85
77700;DHT22;66867;42.658;23.320;2023-04-25T01:39:00;13.3;85
77700;DHT22;66867;42.658;23.320;2023-04-25T01:40:00;13.3;85
77700;DHT22;66867;42.658;23.320;2023-04-25T01:41:00;13.2;85
77700;DHT22;66867;42.658;23.320;2023-04-25T01:42:00;13.2;85
77700;DHT22;66867;42.658;23.320;2023-04-25T01:43:00;13.3;85
77700;DHT22;66867;42.658;23.320;2023-04-25T01:44:01;13.3;85
77700;DHT22;66867;42.658;23.320;2023-04-25T01:45:00;13.3;86
77700;DHT22;66867;42.658;23.320;2023-04-25T01:46:00;13.3;86
77700;DHT22;66867;42.658;23.320;2023-04-25T01:47:00;13.3;86
77700;DHT22;66867;42.658;23.320;2023-04-25T01:48:00;13.3;85
77700;DHT22;66867;42.658;23.320;2023-04-25T01:49:00;13.3;85
77700;DHT22;66867;42.658;23.320;2023-04-25T01:50:01;13.3;85
77700;DHT22;66867;42.658;23.320;2023-04-25T01:51:00;13.3;85
77700;DHT22;66867;42.658;23.320;2023-04-25T01:52:00;13.3;85
77700;DHT22;66867;42.658;23.320;2023-04-25T01:53:00;13.3;85
77700;DHT22;66867;42.658;23.320;2023-04-25T01:54:00;13.2;85
77700;DHT22;66867;42.658;23.320;2023-04-25T01:55:01;13.2;85
77700;DHT22;66867;42.658;23.320;2023-04-25T01:56:00;13.2;85
77700;DHT22;66867;42.658;23.320;2023-04-25T01:57:00;13.2;85
77700;DHT22;66867;42.658;23.320;2023-04-25T01:58:01;13.2;85
77700;DHT22;66867;42.658;23.320;2023-04-25T01:59:00;13.2;85
77700;DHT22;66867;42.658;23.320;2023-04-25T02:00:01;13.3;85
77700;DHT22;66867;42.658;23.320;2023-04-25T02:01:00;13.3;85
77700;DHT22;66867;42.658;23.320;2023-04-25T02:02:00;13.3;84
77700;DHT22;66867;42.658;23.320;2023-04-25T02:03:00;13.2;84
77700;DHT22;66867;42.658;23.320;2023-04-25T02:04:00;13.3;84
77700;DHT22;66867;42.658;23.320;2023-04-25T02:05:00;13.3;84
77700;DHT22;66867;42.658;23.320;2023-04-25T02:06:00;13.2;84
77700;DHT22;66867;42.658;23.320;2023-04-25T02:07:00;13.3;85
77700;DHT22;66867;42.658;23.320;2023-04-25T02:08:00;13.3;85
77700;DHT22;66867;42.658;23.320;2023-04-25T02:09:00;13.3;85
77700;DHT22;66867;42.658;23.320;2023-04-25T02:10:00;13.3;84
77700;DHT22;66867;42.658;23.320;2023-04-25T02:11:00;13.2;84
77700;DHT22;66867;42.658;23.320;2023-04-25T02:12:00;13.2;84
77700;DHT22;66867;42.658;23.320;2023-04-25T02:13:00;13.2;85
77700;DHT22;66867;42.658;23.320;2023-04-25T02:14:00;13.2;85
77700;DHT22;66867;42.658;23.320;2023-04-25T02:15:00;13.3;85
77700;DHT22;66867;42.658;23.320;2023-04-25T02:16:00;13.3;85
77700;DHT22;66867;42.658;23.320;2023-04-25T02:17:00;13.3;85
77700;DHT22;66867;42.658;23.320;2023-04-25T02:18:00;13.2;85
77700;DHT22;66867;42.658;23.320;2023-04-25T02:19:00;13.2;85
77700;DHT22;66867;42.658;23.320;2023-04-25T02:20:00;13.2;85
77700;DHT22;66867;42.658;23.320;2023-04-25T02:21:00;13.2;85
77700;DHT22;66867;42.658;23.320;2023-04-25T02:22:00;13.2;85
77700;DHT22;66867;42.658;23.320;2023-04-25T02:23:00;13.2;85
77700;DHT22;66867;42.658;23.320;2023-04-25T02:24:00;13.2;85
77700;DHT22;66867;42.658;23.320;2023-04-25T02:25:00;13.2;85
77700;DHT22;66867;42.658;23.320;2023-04-25T02:26:00;13.2;85
77700;DHT22;66867;42.658;23.320;2023-04-25T02:27:00;13.2;85
77700;DHT22;66867;42.658;23.320;2023-04-25T02:28:00;13.2;85
77700;DHT22;66867;42.658;23.320;2023-04-25T02:29:00;13.2;85
77700;DHT22;66867;42.658;23.320;2023-04-25T02:30:00;13.2;85
77700;DHT22;66867;42.658;23.320;2023-04-25T02:31:00;13.2;85
77700;DHT22;66867;42.658;23.320;2023-04-25T02:32:00;13.2;85
77700;DHT22;66867;42.658;23.320;2023-04-25T02:33:00;13.2;85
77700;DHT22;66867;42.658;23.320;2023-04-25T02:34:00;13.2;84
77700;DHT22;66867;42.658;23.320;2023-04-25T02:35:00;13.2;84
77700;DHT22;66867;42.658;23.320;2023-04-25T02:36:00;13.2;85
77700;DHT22;66867;42.658;23.320;2023-04-25T02:37:00;13.2;85
77700;DHT22;66867;42.658;23.320;2023-04-25T02:38:00;13.1;85
77700;DHT22;66867;42.658;23.320;2023-04-25T02:39:00;13.1;85
77700;DHT22;66867;42.658;23.320;2023-04-25T02:40:00;13.1;85
77700;DHT22;66867;42.658;23.320;2023-04-25T02:41:00;13.1;85
77700;DHT22;66867;42.658;23.320;2023-04-25T02:42:00;13.1;85
77700;DHT22;66867;42.658;23.320;2023-04-25T02:43:00;13.1;85
77700;DHT22;66867;42.658;23.320;2023-04-25T02:44:00;13.1;84
77700;DHT22;66867;42.658;23.320;2023-04-25T02:45:00;13.1;85
77700;DHT22;66867;42.658;23.320;2023-04-25T02:46:00;13.1;85
77700;DHT22;66867;42.658;23.320;2023-04-25T02:47:00;13.1;85
77700;DHT22;66867;42.658;23.320;2023-04-25T02:48:00;13.1;85
77700;DHT22;66867;42.658;23.320;2023-04-25T02:49:00;13.1;85
77700;DHT22;66867;42.658;23.320;2023-04-25T02:50:00;13.0;85
77700;DHT22;66867;42.658;23.320;2023-04-25T02:51:00;13.0;84
77700;DHT22;66867;42.658;23.320;2023-04-25T02:52:00;13.0;84
77700;DHT22;66867;42.658;23.320;2023-04-25T02:53:00;13.0;85
77700;DHT22;66867;42.658;23.320;2023-04-25T02:54:00;13.0;85
77700;DHT22;66867;42.658;23.320;2023-04-25T02:55:00;13.0;85
77700;DHT22;66867;42.658;23.320;2023-04-25T02:56:00;13.0;85
77700;DHT22;66867;42.658;23.320;2023-04-25T02:57:00;13.0;85
77700;DHT22;66867;42.658;23.320;2023-04-25T02:58:00;13.0;84
77700;DHT22;66867;42.658;23.320;2023-04-25T02:59:00;13.0;84
77700;DHT22;66867;42.658;23.320;2023-04-25T03:00:00;12.9;84
77700;DHT22;66867;42.658;23.320;2023-04-25T03:01:00;13.0;84
77700;DHT22;66867;42.658;23.320;2023-04-25T03:02:00;12.9;84
77700;DHT22;66867;42.658;23.320;2023-04-25T03:03:00;12.9;85
77700;DHT22;66867;42.658;23.320;2023-04-25T03:04:00;12.9;85
77700;DHT22;66867;42.658;23.320;2023-04-25T03:05:00;12.9;84
77700;DHT22;66867;42.658;23.320;2023-04-25T03:06:00;12.9;84
77700;DHT22;66867;42.658;23.320;2023-04-25T03:07:00;12.9;84
77700;DHT22;66867;42.658;23.320;2023-04-25T03:08:00;12.9;84
77700;DHT22;66867;42.658;23.320;2023-04-25T03:09:00;12.9;84
77700;DHT22;66867;42.658;23.320;2023-04-25T03:10:00;12.8;84
77700;DHT22;66867;42.658;23.320;2023-04-25T03:11:00;12.8;84
77700;DHT22;66867;42.658;23.320;2023-04-25T03:12:00;12.8;84
77700;DHT22;66867;42.658;23.320;2023-04-25T03:13:00;12.8;84
77700;DHT22;66867;42.658;23.320;2023-04-25T03:14:00;12.8;84
77700;DHT22;66867;42.658;23.320;2023-04-25T03:15:00;12.8;84
77700;DHT22;66867;42.658;23.320;2023-04-25T03:16:00;12.8;85
77700;DHT22;66867;42.658;23.320;2023-04-25T03:17:00;12.7;85
77700;DHT22;66867;42.658;23.320;2023-04-25T03:18:00;12.7;85
77700;DHT22;66867;42.658;23.320;2023-04-25T03:19:00;12.8;85
77700;DHT22;66867;42.658;23.320;2023-04-25T03:20:00;12.7;85
77700;DHT22;66867;42.658;23.320;2023-04-25T03:21:00;12.7;85
77700;DHT22;66867;42.658;23.320;2023-04-25T03:22:00;12.7;85
77700;DHT22;66867;42.658;23.320;2023-04-25T03:23:00;12.7;86
77700;DHT22;66867;42.658;23.320;2023-04-25T03:24:00;12.7;85
77700;DHT22;66867;42.658;23.320;2023-04-25T03:25:00;12.7;86
77700;DHT22;66867;42.658;23.320;2023-04-25T03:26:00;12.7;86
77700;DHT22;66867;42.658;23.320;2023-04-25T03:27:00;12.7;86
77700;DHT22;66867;42.658;23.320;2023-04-25T03:28:00;12.7;86
77700;DHT22;66867;42.658;23.320;2023-04-25T03:29:00;12.7;86
77700;DHT22;66867;42.658;23.320;2023-04-25T03:30:00;12.7;86
77700;DHT22;66867;42.658;23.320;2023-04-25T03:31:00;12.7;86
77700;DHT22;66867;42.658;23.320;2023-04-25T03:32:00;12.7;86
77700;DHT22;66867;42.658;23.320;2023-04-25T03:33:00;12.7;86
77700;DHT22;66867;42.658;23.320;2023-04-25T03:34:00;12.8;86
77700;DHT22;66867;42.658;23.320;2023-04-25T03:35:00;12.7;86
77700;DHT22;66867;42.658;23.320;2023-04-25T03:36:00;12.8;86
77700;DHT22;66867;42.658;23.320;2023-04-25T03:37:00;12.7;86
77700;DHT22;66867;42.658;23.320;2023-04-25T03:38:00;12.8;86
77700;DHT22;66867;42.658;23.320;2023-04-25T03:39:00;12.8;86
77700;DHT22;66867;42.658;23.320;2023-04-25T03:40:00;12.7;86
77700;DHT22;66867;42.658;23.320;2023-04-25T03:41:00;12.8;86
77700;DHT22;66867;42.658;23.320;2023-04-25T03:42:00;12.8;86
77700;DHT22;66867;42.658;23.320;2023-04-25T03:43:00;12.7;86
77700;DHT22;66867;42.658;23.320;2023-04-25T03:44:00;12.7;86
77700;DHT22;66867;42.658;23.320;2023-04-25T03:45:00;12.7;86
77700;DHT22;66867;42.658;23.320;2023-04-25T03:46:00;12.7;86
77700;DHT22;66867;42.658;23.320;2023-04-25T03:47:00;12.7;86
77700;DHT22;66867;42.658;23.320;2023-04-25T03:48:00;12.7;86
77700;DHT22;66867;42.658;23.320;2023-04-25T03:49:00;12.7;86
77700;DHT22;66867;42.658;23.320;2023-04-25T03:50:00;12.6;87
77700;DHT22;66867;42.658;23.320;2023-04-25T03:51:00;12.6;87
77700;DHT22;66867;42.658;23.320;2023-04-25T03:52:00;12.6;87
77700;DHT22;66867;42.658;23.320;2023-04-25T03:53:00;12.6;87
77700;DHT22;66867;42.658;23.320;2023-04-25T03:54:00;12.7;88
77700;DHT22;66867;42.658;23.320;2023-04-25T03:55:00;12.6;88
77700;DHT22;66867;42.658;23.320;2023-04-25T03:56:00;12.6;88
77700;DHT22;66867;42.658;23.320;2023-04-25T03:57:00;12.6;88
77700;DHT22;66867;42.658;23.320;2023-04-25T03:58:00;12.7;88
77700;DHT22;66867;42.658;23.320;2023-04-25T03:59:00;12.7;88
77700;DHT22;66867;42.658;23.320;2023-04-25T04:00:00;12.6;88
77700;DHT22;66867;42.658;23.320;2023-04-25T04:01:00;12.6;88
77700;DHT22;66867;42.658;23.320;2023-04-25T04:02:00;12.7;88
77700;DHT22;66867;42.658;23.320;2023-04-25T04:03:00;12.7;88
77700;DHT22;66867;42.658;23.320;2023-04-25T04:04:00;12.7;88
77700;DHT22;66867;42.658;23.320;2023-04-25T04:05:00;12.7;88
77700;DHT22;66867;42.658;23.320;2023-04-25T04:06:00;12.7;88
77700;DHT22;66867;42.658;23.320;2023-04-25T04:07:00;12.7;88
77700;DHT22;66867;42.658;23.320;2023-04-25T04:08:00;12.7;88
77700;DHT22;66867;42.658;23.320;2023-04-25T04:09:00;12.8;88
77700;DHT22;66867;42.658;23.320;2023-04-25T04:10:00;12.8;88
77700;DHT22;66867;42.658;23.320;2023-04-25T04:11:00;12.8;88
77700;DHT22;66867;42.658;23.320;2023-04-25T04:12:00;12.8;88
77700;DHT22;66867;42.658;23.320;2023-04-25T04:13:00;12.8;88
77700;DHT22;66867;42.658;23.320;2023-04-25T04:14:00;12.8;88
77700;DHT22;66867;42.658;23.320;2023-04-25T04:15:01;12.8;89
77700;DHT22;66867;42.658;23.320;2023-04-25T04:16:00;12.7;88
77700;DHT22;66867;42.658;23.320;2023-04-25T04:17:00;12.7;88
77700;DHT22;66867;42.658;23.320;2023-04-25T04:18:00;12.7;88
77700;DHT22;66867;42.658;23.320;2023-04-25T04:19:00;12.8;88
77700;DHT22;66867;42.658;23.320;2023-04-25T04:20:00;12.8;88
77700;DHT22;66867;42.658;23.320;2023-04-25T04:21:00;12.9;88
77700;DHT22;66867;42.658;23.320;2023-04-25T04:22:00;12.9;88
77700;DHT22;66867;42.658;23.320;2023-04-25T04:23:00;12.9;88
77700;DHT22;66867;42.658;23.320;2023-04-25T04:24:00;13.0;88
77700;DHT22;66867;42.658;23.320;2023-04-25T04:25:00;13.0;87
77700;DHT22;66867;42.658;23.320;2023-04-25T04:26:00;13.0;88
77700;DHT22;66867;42.658;23.320;2023-04-25T04:27:00;13.0;87
77700;DHT22;66867;42.658;23.320;2023-04-25T04:28:00;13.0;87
77700;DHT22;66867;42.658;23.320;2023-04-25T04:29:00;13.0;87
77700;DHT22;66867;42.658;23.320;2023-04-25T04:30:00;13.0;87
77700;DHT22;66867;42.658;23.320;2023-04-25T04:31:00;13.0;87
77700;DHT22;66867;42.658;23.320;2023-04-25T04:32:00;13.0;87
77700;DHT22;66867;42.658;23.320;2023-04-25T04:33:00;13.0;87
77700;DHT22;66867;42.658;23.320;2023-04-25T04:34:00;13.0;87
77700;DHT22;66867;42.658;23.320;2023-04-25T04:35:00;12.9;87
77700;DHT22;66867;42.658;23.320;2023-04-25T04:36:00;12.8;88
77700;DHT22;66867;42.658;23.320;2023-04-25T04:37:00;12.8;88
77700;DHT22;66867;42.658;23.320;2023-04-25T04:38:00;12.7;88
77700;DHT22;66867;42.658;23.320;2023-04-25T04:39:00;12.8;88
77700;DHT22;66867;42.658;23.320;2023-04-25T04:40:00;12.8;89
77700;DHT22;66867;42.658;23.320;2023-04-25T04:41:00;12.8;89
77700;DHT22;66867;42.658;23.320;2023-04-25T04:42:00;12.8;88
77700;DHT22;66867;42.658;23.320;2023-04-25T04:43:00;12.8;88
77700;DHT22;66867;42.658;23.320;2023-04-25T04:44:00;12.8;88
77700;DHT22;66867;42.658;23.320;2023-04-25T04:45:00;12.8;88
77700;DHT22;66867;42.658;23.320;2023-04-25T04:46:00;12.8;89
77700;DHT22;66867;42.658;23.320;2023-04-25T04:47:00;12.8;89
77700;DHT22;66867;42.658;23.320;2023-04-25T04:48:00;12.8;88
77700;DHT22;66867;42.658;23.320;2023-04-25T04:49:00;12.9;88
77700;DHT22;66867;42.658;23.320;2023-04-25T04:50:00;12.9;87
77700;DHT22;66867;42.658;23.320;2023-04-25T04:51:00;12.9;88
77700;DHT22;66867;42.658;23.320;2023-04-25T04:52:00;12.9;88
77700;DHT22;66867;42.658;23.320;2023-04-25T04:53:00;12.8;87
77700;DHT22;66867;42.658;23.320;2023-04-25T04:54:00;12.8;88
77700;DHT22;66867;42.658;23.320;2023-04-25T04:55:00;12.8;88
77700;DHT22;66867;42.658;23.320;2023-04-25T04:56:00;12.8;88
77700;DHT22;66867;42.658;23.320;2023-04-25T04:57:00;12.9;88
77700;DHT22;66867;42.658;23.320;2023-04-25T04:58:00;12.9;88
77700;DHT22;66867;42.658;23.320;2023-04-25T04:59:00;12.9;88
77700;DHT22;66867;42.658;23.320;2023-04-25T05:00:00;13.0;88
77700;DHT22;66867;42.658;23.320;2023-04-25T05:01:00;13.0;88
77700;DHT22;66867;42.658;23.320;2023-04-25T05:02:00;13.0;87
77700;DHT22;66867;42.658;23.320;2023-04-25T05:03:00;12.9;87
77700;DHT22;66867;42.658;23.320;2023-04-25T05:04:00;13.0;87
77700;DHT22;66867;42.658;23.320;2023-04-25T05:05:00;13.0;87
77700;DHT22;66867;42.658;23.320;2023-04-25T05:06:00;13.0;86
77700;DHT22;66867;42.658;23.320;2023-04-25T05:07:00;12.9;87
77700;DHT22;66867;42.658;23.320;2023-04-25T05:08:00;12.9;87
77700;DHT22;66867;42.658;23.320;2023-04-25T05:09:00;12.8;88
77700;DHT22;66867;42.658;23.320;2023-04-25T05:10:00;12.8;87
77700;DHT22;66867;42.658;23.320;2023-04-25T05:11:00;12.8;87
77700;DHT22;66867;42.658;23.320;2023-04-25T05:16:00;12.9;88
77700;DHT22;66867;42.658;23.320;2023-04-25T05:17:00;12.9;88
77700;DHT22;66867;42.658;23.320;2023-04-25T05:18:00;13.0;88
77700;DHT22;66867;42.658;23.320;2023-04-25T05:19:00;13.0;88
77700;DHT22;66867;42.658;23.320;2023-04-25T05:20:00;13.0;87
77700;DHT22;66867;42.658;23.320;2023-04-25T05:21:00;13.1;87
77700;DHT22;66867;42.658;23.320;2023-04-25T05:22:00;13.1;87
77700;DHT22;66867;42.658;23.320;2023-04-25T05:23:00;13.1;87
77700;DHT22;66867;42.658;23.320;2023-04-25T05:24:00;13.2;87
77700;DHT22;66867;42.658;23.320;2023-04-25T05:25:00;13.2;87
77700;DHT22;66867;42.658;23.320;2023-04-25T05:26:00;13.1;87
77700;DHT22;66867;42.658;23.320;2023-04-25T05:27:00;13.2;87
77700;DHT22;66867;42.658;23.320;2023-04-25T05:28:00;13.2;87
77700;DHT22;66867;42.658;23.320;2023-04-25T05:29:00;13.2;87
77700;DHT22;66867;42.658;23.320;2023-04-25T05:30:00;13.2;88
77700;DHT22;66867;42.658;23.320;2023-04-25T05:31:00;13.2;88
77700;DHT22;66867;42.658;23.320;2023-04-25T05:32:00;13.2;88
77700;DHT22;66867;42.658;23.320;2023-04-25T05:33:00;13.1;88
77700;DHT22;66867;42.658;23.320;2023-04-25T05:34:00;13.2;88
77700;DHT22;66867;42.658;23.320;2023-04-25T05:35:00;13.2;88
77700;DHT22;66867;42.658;23.320;2023-04-25T05:36:00;13.2;88
77700;DHT22;66867;42.658;23.320;2023-04-25T05:37:00;13.2;88
77700;DHT22;66867;42.658;23.320;2023-04-25T05:38:00;13.2;88
77700;DHT22;66867;42.658;23.320;2023-04-25T05:39:00;13.3;88
77700;DHT22;66867;42.658;23.320;2023-04-25T05:40:00;13.3;88
77700;DHT22;66867;42.658;23.320;2023-04-25T05:41:00;13.3;88
77700;DHT22;66867;42.658;23.320;2023-04-25T05:42:00;13.4;88
77700;DHT22;66867;42.658;23.320;2023-04-25T05:43:00;13.4;88
77700;DHT22;66867;42.658;23.320;2023-04-25T05:44:00;13.4;88
77700;DHT22;66867;42.658;23.320;2023-04-25T05:45:00;13.4;88
77700;DHT22;66867;42.658;23.320;2023-04-25T05:50:00;13.4;87
77700;DHT22;66867;42.658;23.320;2023-04-25T05:51:00;13.3;88
77700;DHT22;66867;42.658;23.320;2023-04-25T05:52:00;13.3;88
77700;DHT22;66867;42.658;23.320;2023-04-25T05:53:00;13.4;88
77700;DHT22;66867;42.658;23.320;2023-04-25T05:54:00;13.4;88
77700;DHT22;66867;42.658;23.320;2023-04-25T05:55:00;13.4;87
77700;DHT22;66867;42.658;23.320;2023-04-25T05:56:00;13.4;88
77700;DHT22;66867;42.658;23.320;2023-04-25T05:57:00;13.4;87
77700;DHT22;66867;42.658;23.320;2023-04-25T05:58:00;13.4;87
77700;DHT22;66867;42.658;23.320;2023-04-25T05:59:00;13.4;87
77700;DHT22;66867;42.658;23.320;2023-04-25T06:00:00;13.4;87
77700;DHT22;66867;42.658;23.320;2023-04-25T06:01:00;13.4;87
77700;DHT22;66867;42.658;23.320;2023-04-25T06:02:00;13.4;87
77700;DHT22;66867;42.658;23.320;2023-04-25T06:03:00;13.5;86
77700;DHT22;66867;42.658;23.320;2023-04-25T06:04:00;13.5;86
77700;DHT22;66867;42.658;23.320;2023-04-25T06:05:00;13.5;86
77700;DHT22;66867;42.658;23.320;2023-04-25T06:06:00;13.5;86
77700;DHT22;66867;42.658;23.320;2023-04-25T06:07:00;13.5;86
77700;DHT22;66867;42.658;23.320;2023-04-25T06:08:00;13.6;87
77700;DHT22;66867;42.658;23.320;2023-04-25T06:09:00;13.6;86
77700;DHT22;66867;42.658;23.320;2023-04-25T06:10:00;13.6;86
77700;DHT22;66867;42.658;23.320;2023-04-25T06:11:00;13.6;86
77700;DHT22;66867;42.658;23.320;2023-04-25T06:12:00;13.6;86
77700;DHT22;66867;42.658;23.320;2023-04-25T06:13:00;13.6;86
77700;DHT22;66867;42.658;23.320;2023-04-25T06:14:00;13.7;85
77700;DHT22;66867;42.658;23.320;2023-04-25T06:15:00;13.7;85
77700;DHT22;66867;42.658;23.320;2023-04-25T06:16:00;13.7;85
77700;DHT22;66867;42.658;23.320;2023-04-25T06:17:00;13.8;85
77700;DHT22;66867;42.658;23.320;2023-04-25T06:18:00;13.8;85
77700;DHT22;66867;42.658;23.320;2023-04-25T06:19:00;13.8;85
77700;DHT22;66867;42.658;23.320;2023-04-25T06:20:00;13.8;84
77700;DHT22;66867;42.658;23.320;2023-04-25T06:21:00;13.8;84
77700;DHT22;66867;42.658;23.320;2023-04-25T06:22:00;13.8;84
77700;DHT22;66867;42.658;23.320;2023-04-25T06:23:00;13.8;84
77700;DHT22;66867;42.658;23.320;2023-04-25T06:24:00;13.8;84
77700;DHT22;66867;42.658;23.320;2023-04-25T06:25:00;13.8;84
77700;DHT22;66867;42.658;23.320;2023-04-25T06:26:00;13.8;83
77700;DHT22;66867;42.658;23.320;2023-04-25T06:27:00;13.8;83
77700;DHT22;66867;42.658;23.320;2023-04-25T06:28:00;13.8;84
77700;DHT22;66867;42.658;23.320;2023-04-25T06:29:00;13.8;83
77700;DHT22;66867;42.658;23.320;2023-04-25T06:30:00;13.7;84
77700;DHT22;66867;42.658;23.320;2023-04-25T06:31:00;13.7;84
77700;DHT22;66867;42.658;23.320;2023-04-25T06:32:00;13.7;84
77700;DHT22;66867;42.658;23.320;2023-04-25T06:33:00;13.7;85
77700;DHT22;66867;42.658;23.320;2023-04-25T06:34:00;13.6;84
77700;DHT22;66867;42.658;23.320;2023-04-25T06:35:00;13.7;85
77700;DHT22;66867;42.658;23.320;2023-04-25T06:36:00;13.7;86
77700;DHT22;66867;42.658;23.320;2023-04-25T06:37:00;13.7;86
77700;DHT22;66867;42.658;23.320;2023-04-25T06:38:00;13.8;87
77700;DHT22;66867;42.658;23.320;2023-04-25T06:39:00;13.8;88
77700;DHT22;66867;42.658;23.320;2023-04-25T06:40:00;13.9;86
77700;DHT22;66867;42.658;23.320;2023-04-25T06:41:00;14.0;86
77700;DHT22;66867;42.658;23.320;2023-04-25T06:42:00;14.0;86
77700;DHT22;66867;42.658;23.320;2023-04-25T06:43:00;14.1;86
77700;DHT22;66867;42.658;23.320;2023-04-25T06:44:00;14.2;85
77700;DHT22;66867;42.658;23.320;2023-04-25T06:45:00;14.2;85